Thornburg, VA

10:06 PM EST on November 27, 2014 (GMT -0500)
Virginia Heritage at Lees Parke | Change Station
CLOSE
Current Station
Personal Weather Station
Location: Fredericksburg, VA
Elevation: 236 ft
Nearby Weather Stations

Elev 236 ft 38.23 °N, 77.51 °W | Updated 3 seconds ago

Partly Cloudy
Partly Cloudy
37.6 °F
Feels Like 38 °F
N
1.6
Wind Variable Wind from NW
Gusts 3.1 mph

Today
High -- | Low -- °F
--% Chance of Precip.
Yesterday
High -- | Low -- °F
Precip. -- in
7:03 AM 4:51 PM
Waxing Crescent, 35% visible
Pressure 30.18 in
Visibility 10.0 miles
Clouds Clear
Windchill 38 °F
Dew Point 31 °F
Humidity 76%
Rainfall 0.00 in
Snow Depth Not available.
UV 0 out of 12
Pollen .10 out of 12
Air Quality Not available.
Flu Activity Not available.
METAR KEZF 280255Z AUTO 29004KT 10SM CLR 01/M02 A3018 RMK AO2 T00061016

More Conditions Fewer Conditions

Pressure 30.18 in
Visibility 10.0 miles
Clouds Clear
Windchill 38 °F
Dew Point 31 °F
Humidity 76%
Rainfall 0.00 in
Snow Depth Not available.
UV 0 out of 12
Pollen .10 out of 12
Air Quality Not available.
Flu Activity Not available.
METAR KEZF 280255Z AUTO 29004KT 10SM CLR 01/M02 A3018 RMK AO2 T00061016

More Conditions Fewer Conditions

10-Day Weather Forecast

Almanac

Astronomy

Nov. 27, 2014 Rise Set
Actual Time
Civil Twilight
Nautical Twilight
Astronomical Twilight
Moon
Length of Visible Light
Length of Day
Tomorrow will be .
, % of the Moon is Illuminated

Today's Extremes

State Highs State Lows

Community

WunderPhotos

Upload Photos

1,774,166 photos uploaded!

WunderBlogs® & News

Nearby

Air Quality

  Air Quality AQ Index Pollutant
Not available.

Snow Depth

Station Depth Elevation

Earthquake Activity

City Distance Mag. Time & Date
Minimum magnitude displayed is 2.5.

Coastal Water Temperatures

Place Temperature

Nearby Weather Stations